Fort Myers, FL

10:30 PM EDT on July 23, 2016 (GMT -0400)
Southwest Florida International | | Change Station

Elev 30 ft 26.54 °N, 81.76 °W | Updated 37 minutes ago

Mostly Cloudy
Mostly Cloudy
80 °F
Feels Like 84 °F
N
5
Wind Variable Wind from ESE

Today
High -- | Low -- °F
--% Chance of Precip.
Yesterday
High -- | Low -- °F
Precip. -- in
Pressure 30.01 in
Visibility 10.0 miles
Clouds Mostly Cloudy 3500 ft
Mostly Cloudy 4700 ft
Heat Index 84 °F
Dew Point 73 °F
Humidity 79%
Rainfall 0.01 in
Snow Depth Not available.
6:47 AM 8:19 PM
Waning Gibbous, 80% visible
METAR KRSW 240153Z AUTO 11004KT 10SM BKN035 BKN047 27/23 A3002 RMK AO2 SLP163 T02670228
Pressure 30.01 in
Visibility 10.0 miles
Clouds Mostly Cloudy 3500 ft
Mostly Cloudy 4700 ft
Heat Index 84 °F
Dew Point 73 °F
Humidity 79%
Rainfall 0.01 in
Snow Depth Not available.
6:47 AM 8:19 PM
Waning Gibbous, 80% visible
METAR KRSW 240153Z AUTO 11004KT 10SM BKN035 BKN047 27/23 A3002 RMK AO2 SLP163 T02670228

10-Day Weather Forecast

Almanac

Astronomy

Jul. 23, 2016 Rise Set
Actual Time
Civil Twilight
Nautical Twilight
Astronomical Twilight
Moon
Length of Visible Light
Length of Day
Tomorrow will be .
, % of the Moon is Illuminated

Today's Extremes

State Highs State Lows

Community

WunderPhotos

Upload Photos

1,927,000 photos uploaded!

WunderBlog® & News

Nearby

Air Quality

  Air Quality AQ Index Pollutant
Not available.

Snow Depth

Station Depth Elevation

Earthquake Activity

City Distance Mag. Time & Date
Minimum magnitude displayed is 2.5.

Coastal Water Temperatures

Place Temperature

Stations

Nearby Weather Stations

Station Location Temp. Windchill Dew Point Humidity Wind Precip. Elev Updated Type
                   

Watches & Warnings

There are currently no watches in effect.